sensor_id;sensor_type;location;lat;lon;timestamp;pressure;altitude;pressure_sealevel;temperature;humidity
64211;BME280;50528;48.514;14.394;2023-06-14T00:00:28;93506.70;;;10.39;58.72
64211;BME280;50528;48.514;14.394;2023-06-14T00:01:22;93510.48;;;10.36;58.70
64211;BME280;50528;48.514;14.394;2023-06-14T00:01:55;93506.63;;;10.33;58.81
64211;BME280;50528;48.514;14.394;2023-06-14T00:02:28;93506.32;;;10.34;58.81
64211;BME280;50528;48.514;14.394;2023-06-14T00:03:02;93508.00;;;10.34;58.83
64211;BME280;50528;48.514;14.394;2023-06-14T00:03:37;93509.83;;;10.34;58.82
64211;BME280;50528;48.514;14.394;2023-06-14T00:04:12;93507.58;;;10.34;58.87
64211;BME280;50528;48.514;14.394;2023-06-14T00:04:45;93507.41;;;10.34;58.99
64211;BME280;50528;48.514;14.394;2023-06-14T00:05:21;93508.52;;;10.33;59.04
64211;BME280;50528;48.514;14.394;2023-06-14T00:05:56;93507.97;;;10.32;58.98
64211;BME280;50528;48.514;14.394;2023-06-14T00:06:29;93507.98;;;10.31;59.02
64211;BME280;50528;48.514;14.394;2023-06-14T00:07:03;93508.55;;;10.32;59.12
64211;BME280;50528;48.514;14.394;2023-06-14T00:07:38;93508.76;;;10.32;59.08
64211;BME280;50528;48.514;14.394;2023-06-14T00:08:15;93510.70;;;10.32;59.10
64211;BME280;50528;48.514;14.394;2023-06-14T00:08:48;93510.66;;;10.32;59.16
64211;BME280;50528;48.514;14.394;2023-06-14T00:09:22;93511.66;;;10.31;59.17
64211;BME280;50528;48.514;14.394;2023-06-14T00:09:56;93512.65;;;10.32;59.15
64211;BME280;50528;48.514;14.394;2023-06-14T00:10:30;93512.45;;;10.31;59.13
64211;BME280;50528;48.514;14.394;2023-06-14T00:11:07;93513.08;;;10.31;59.12
64211;BME280;50528;48.514;14.394;2023-06-14T00:11:44;93509.29;;;10.31;59.04
64211;BME280;50528;48.514;14.394;2023-06-14T00:12:18;93507.71;;;10.30;59.18
64211;BME280;50528;48.514;14.394;2023-06-14T00:12:52;93506.46;;;10.32;59.27
64211;BME280;50528;48.514;14.394;2023-06-14T00:13:25;93504.44;;;10.36;58.89
64211;BME280;50528;48.514;14.394;2023-06-14T00:13:58;93505.02;;;10.29;58.92
64211;BME280;50528;48.514;14.394;2023-06-14T00:14:32;93502.83;;;10.23;58.96
64211;BME280;50528;48.514;14.394;2023-06-14T00:15:06;93503.90;;;10.18;59.07
64211;BME280;50528;48.514;14.394;2023-06-14T00:15:40;93504.45;;;10.14;59.19
64211;BME280;50528;48.514;14.394;2023-06-14T00:16:13;93503.46;;;10.12;59.25
64211;BME280;50528;48.514;14.394;2023-06-14T00:16:47;93503.67;;;10.12;59.25
64211;BME280;50528;48.514;14.394;2023-06-14T00:17:21;93501.72;;;10.11;59.36
64211;BME280;50528;48.514;14.394;2023-06-14T00:17:55;93506.51;;;10.12;59.50
64211;BME280;50528;48.514;14.394;2023-06-14T00:18:29;93498.48;;;10.07;59.33
64211;BME280;50528;48.514;14.394;2023-06-14T00:19:04;93507.67;;;10.08;59.41
64211;BME280;50528;48.514;14.394;2023-06-14T00:19:37;93509.24;;;10.07;59.39
64211;BME280;50528;48.514;14.394;2023-06-14T00:20:11;93509.61;;;10.07;59.45
64211;BME280;50528;48.514;14.394;2023-06-14T00:20:45;93512.71;;;10.07;59.52
64211;BME280;50528;48.514;14.394;2023-06-14T00:21:19;93509.30;;;10.07;59.54
64211;BME280;50528;48.514;14.394;2023-06-14T00:21:52;93511.86;;;10.07;59.66
64211;BME280;50528;48.514;14.394;2023-06-14T00:22:26;93512.81;;;10.09;59.63
64211;BME280;50528;48.514;14.394;2023-06-14T00:23:01;93512.26;;;10.10;59.68
64211;BME280;50528;48.514;14.394;2023-06-14T00:23:35;93513.63;;;10.10;59.75
64211;BME280;50528;48.514;14.394;2023-06-14T00:24:08;93514.69;;;10.10;59.70
64211;BME280;50528;48.514;14.394;2023-06-14T00:24:42;93513.39;;;10.12;59.72
64211;BME280;50528;48.514;14.394;2023-06-14T00:25:15;93513.65;;;10.12;59.68
64211;BME280;50528;48.514;14.394;2023-06-14T00:26:01;93513.85;;;10.12;59.60
64211;BME280;50528;48.514;14.394;2023-06-14T00:26:34;93514.52;;;10.10;59.77
64211;BME280;50528;48.514;14.394;2023-06-14T00:27:08;93511.67;;;10.09;59.71
64211;BME280;50528;48.514;14.394;2023-06-14T00:27:42;93509.69;;;10.10;59.78
64211;BME280;50528;48.514;14.394;2023-06-14T00:28:15;93507.25;;;10.09;59.72
64211;BME280;50528;48.514;14.394;2023-06-14T00:28:49;93510.45;;;10.08;59.73
64211;BME280;50528;48.514;14.394;2023-06-14T00:29:22;93508.30;;;10.09;59.78
64211;BME280;50528;48.514;14.394;2023-06-14T00:29:56;93510.45;;;10.07;59.76
64211;BME280;50528;48.514;14.394;2023-06-14T00:30:32;93506.88;;;10.05;59.78
64211;BME280;50528;48.514;14.394;2023-06-14T00:31:07;93505.02;;;10.04;59.88
64211;BME280;50528;48.514;14.394;2023-06-14T00:31:41;93507.00;;;10.03;59.90
64211;BME280;50528;48.514;14.394;2023-06-14T00:32:14;93507.98;;;10.01;59.86
64211;BME280;50528;48.514;14.394;2023-06-14T00:32:48;93507.78;;;10.02;60.00
64211;BME280;50528;48.514;14.394;2023-06-14T00:33:23;93505.27;;;10.02;59.94
64211;BME280;50528;48.514;14.394;2023-06-14T00:33:57;93505.94;;;10.01;59.93
64211;BME280;50528;48.514;14.394;2023-06-14T00:34:31;93503.98;;;9.99;59.93
64211;BME280;50528;48.514;14.394;2023-06-14T00:35:04;93506.19;;;9.98;59.94
64211;BME280;50528;48.514;14.394;2023-06-14T00:35:38;93507.21;;;9.96;59.91
64211;BME280;50528;48.514;14.394;2023-06-14T00:36:11;93508.53;;;9.95;60.01
64211;BME280;50528;48.514;14.394;2023-06-14T00:36:45;93506.89;;;9.94;60.06
64211;BME280;50528;48.514;14.394;2023-06-14T00:37:20;93508.04;;;9.93;60.07
64211;BME280;50528;48.514;14.394;2023-06-14T00:37:53;93508.41;;;9.93;60.12
64211;BME280;50528;48.514;14.394;2023-06-14T00:38:27;93507.77;;;9.93;60.20
64211;BME280;50528;48.514;14.394;2023-06-14T00:39:01;93507.86;;;9.92;60.24
64211;BME280;50528;48.514;14.394;2023-06-14T00:39:34;93506.98;;;9.93;60.23
64211;BME280;50528;48.514;14.394;2023-06-14T00:40:08;93506.55;;;9.92;60.27
64211;BME280;50528;48.514;14.394;2023-06-14T00:40:41;93506.61;;;9.93;60.30
64211;BME280;50528;48.514;14.394;2023-06-14T00:41:18;93504.67;;;9.93;60.33
64211;BME280;50528;48.514;14.394;2023-06-14T00:41:52;93502.55;;;9.92;60.45
64211;BME280;50528;48.514;14.394;2023-06-14T00:42:26;93504.34;;;9.91;60.43
64211;BME280;50528;48.514;14.394;2023-06-14T00:43:00;93504.20;;;9.92;60.57
64211;BME280;50528;48.514;14.394;2023-06-14T00:43:33;93504.23;;;9.92;60.54
64211;BME280;50528;48.514;14.394;2023-06-14T00:44:08;93502.65;;;9.90;60.57
64211;BME280;50528;48.514;14.394;2023-06-14T00:44:41;93502.88;;;9.92;60.60
64211;BME280;50528;48.514;14.394;2023-06-14T00:45:15;93504.02;;;9.91;60.65
64211;BME280;50528;48.514;14.394;2023-06-14T00:45:48;93505.42;;;9.90;60.61
64211;BME280;50528;48.514;14.394;2023-06-14T00:46:22;93500.34;;;9.89;60.75
64211;BME280;50528;48.514;14.394;2023-06-14T00:46:56;93500.02;;;9.89;60.77
64211;BME280;50528;48.514;14.394;2023-06-14T00:47:30;93502.90;;;9.89;60.84
64211;BME280;50528;48.514;14.394;2023-06-14T00:48:04;93500.79;;;9.87;60.92
64211;BME280;50528;48.514;14.394;2023-06-14T00:48:40;93502.98;;;9.86;60.78
64211;BME280;50528;48.514;14.394;2023-06-14T00:49:14;93505.11;;;9.84;60.93
64211;BME280;50528;48.514;14.394;2023-06-14T00:49:53;93501.23;;;9.83;60.87
64211;BME280;50528;48.514;14.394;2023-06-14T00:50:28;93499.27;;;9.81;61.00
64211;BME280;50528;48.514;14.394;2023-06-14T00:51:02;93501.14;;;9.79;60.96
64211;BME280;50528;48.514;14.394;2023-06-14T00:51:37;93501.45;;;9.78;61.08
64211;BME280;50528;48.514;14.394;2023-06-14T00:52:12;93499.88;;;9.79;60.94
64211;BME280;50528;48.514;14.394;2023-06-14T00:52:47;93496.77;;;9.71;61.03
64211;BME280;50528;48.514;14.394;2023-06-14T00:53:21;93500.23;;;9.70;61.18
64211;BME280;50528;48.514;14.394;2023-06-14T00:53:57;93497.02;;;9.69;61.38
64211;BME280;50528;48.514;14.394;2023-06-14T00:54:31;93501.72;;;9.68;61.41
64211;BME280;50528;48.514;14.394;2023-06-14T00:55:05;93499.19;;;9.66;61.46
64211;BME280;50528;48.514;14.394;2023-06-14T00:55:38;93500.30;;;9.65;61.33
64211;BME280;50528;48.514;14.394;2023-06-14T00:56:15;93494.13;;;9.63;61.38
64211;BME280;50528;48.514;14.394;2023-06-14T00:56:56;93498.13;;;9.64;61.36
64211;BME280;50528;48.514;14.394;2023-06-14T00:57:29;93501.20;;;9.63;61.50
64211;BME280;50528;48.514;14.394;2023-06-14T00:58:03;93495.55;;;9.63;61.63
64211;BME280;50528;48.514;14.394;2023-06-14T00:58:36;93498.44;;;9.64;61.57
64211;BME280;50528;48.514;14.394;2023-06-14T00:59:10;93499.17;;;9.63;61.71
64211;BME280;50528;48.514;14.394;2023-06-14T00:59:46;93497.40;;;9.65;61.69
64211;BME280;50528;48.514;14.394;2023-06-14T01:00:20;93496.03;;;9.64;61.69
64211;BME280;50528;48.514;14.394;2023-06-14T01:00:53;93497.48;;;9.63;61.64
64211;BME280;50528;48.514;14.394;2023-06-14T01:01:28;93497.99;;;9.62;61.73
64211;BME280;50528;48.514;14.394;2023-06-14T01:02:02;93501.45;;;9.61;61.68
64211;BME280;50528;48.514;14.394;2023-06-14T01:02:37;93500.76;;;9.61;61.73
64211;BME280;50528;48.514;14.394;2023-06-14T01:03:14;93497.46;;;9.60;61.82
64211;BME280;50528;48.514;14.394;2023-06-14T01:03:55;93498.58;;;9.56;61.77
64211;BME280;50528;48.514;14.394;2023-06-14T01:04:30;93501.89;;;9.57;61.81
64211;BME280;50528;48.514;14.394;2023-06-14T01:05:04;93500.73;;;9.57;61.97
64211;BME280;50528;48.514;14.394;2023-06-14T01:05:40;93500.63;;;9.57;61.89
64211;BME280;50528;48.514;14.394;2023-06-14T01:06:27;93498.05;;;9.55;61.88
64211;BME280;50528;48.514;14.394;2023-06-14T01:07:12;93503.34;;;9.56;61.88
64211;BME280;50528;48.514;14.394;2023-06-14T01:08:47;93503.81;;;9.54;61.93
64211;BME280;50528;48.514;14.394;2023-06-14T01:10:20;93501.92;;;9.54;61.97
64211;BME280;50528;48.514;14.394;2023-06-14T01:10:56;93501.90;;;9.52;61.83
64211;BME280;50528;48.514;14.394;2023-06-14T01:11:38;93494.27;;;9.45;61.71
64211;BME280;50528;48.514;14.394;2023-06-14T01:12:24;93500.61;;;9.50;61.83
64211;BME280;50528;48.514;14.394;2023-06-14T01:13:59;93501.31;;;9.48;61.97
64211;BME280;50528;48.514;14.394;2023-06-14T01:14:36;93502.08;;;9.50;62.01
64211;BME280;50528;48.514;14.394;2023-06-14T01:15:12;93502.09;;;9.51;62.11
64211;BME280;50528;48.514;14.394;2023-06-14T01:15:47;93499.94;;;9.51;62.14
64211;BME280;50528;48.514;14.394;2023-06-14T01:16:21;93500.90;;;9.52;61.99
64211;BME280;50528;48.514;14.394;2023-06-14T01:16:56;93501.33;;;9.52;62.13
64211;BME280;50528;48.514;14.394;2023-06-14T01:17:34;93500.27;;;9.52;62.08
64211;BME280;50528;48.514;14.394;2023-06-14T01:18:08;93499.91;;;9.52;62.14
64211;BME280;50528;48.514;14.394;2023-06-14T01:18:41;93499.61;;;9.53;62.16
64211;BME280;50528;48.514;14.394;2023-06-14T01:19:22;93498.39;;;9.53;62.14
64211;BME280;50528;48.514;14.394;2023-06-14T01:20:01;93498.13;;;9.53;62.17
64211;BME280;50528;48.514;14.394;2023-06-14T01:20:36;93495.30;;;9.53;62.21
64211;BME280;50528;48.514;14.394;2023-06-14T01:21:23;93492.55;;;9.52;62.26
64211;BME280;50528;48.514;14.394;2023-06-14T01:22:00;93491.33;;;9.50;62.23
64211;BME280;50528;48.514;14.394;2023-06-14T01:22:34;93495.09;;;9.49;62.31
64211;BME280;50528;48.514;14.394;2023-06-14T01:23:08;93493.94;;;9.49;62.27
64211;BME280;50528;48.514;14.394;2023-06-14T01:23:42;93495.94;;;9.48;62.30
64211;BME280;50528;48.514;14.394;2023-06-14T01:24:15;93496.30;;;9.48;62.23
64211;BME280;50528;48.514;14.394;2023-06-14T01:24:51;93494.67;;;9.47;62.36
64211;BME280;50528;48.514;14.394;2023-06-14T01:25:28;93495.98;;;9.46;62.32
64211;BME280;50528;48.514;14.394;2023-06-14T01:26:01;93493.85;;;9.45;62.42
64211;BME280;50528;48.514;14.394;2023-06-14T01:26:39;93493.27;;;9.44;62.38
64211;BME280;50528;48.514;14.394;2023-06-14T01:27:19;93495.41;;;9.43;62.41
64211;BME280;50528;48.514;14.394;2023-06-14T01:28:03;93500.70;;;9.42;62.46
64211;BME280;50528;48.514;14.394;2023-06-14T01:28:44;93497.22;;;9.39;62.42
64211;BME280;50528;48.514;14.394;2023-06-14T01:29:25;93495.42;;;9.39;62.49
64211;BME280;50528;48.514;14.394;2023-06-14T01:30:01;93498.24;;;9.39;62.50
64211;BME280;50528;48.514;14.394;2023-06-14T01:30:40;93499.45;;;9.39;62.50
64211;BME280;50528;48.514;14.394;2023-06-14T01:31:20;93501.98;;;9.39;62.55
64211;BME280;50528;48.514;14.394;2023-06-14T01:31:54;93500.77;;;9.39;62.79
64211;BME280;50528;48.514;14.394;2023-06-14T01:32:29;93502.52;;;9.40;62.70
64211;BME280;50528;48.514;14.394;2023-06-14T01:33:03;93501.64;;;9.41;62.70
64211;BME280;50528;48.514;14.394;2023-06-14T01:33:38;93503.27;;;9.42;62.78
64211;BME280;50528;48.514;14.394;2023-06-14T01:34:11;93503.48;;;9.43;62.81
64211;BME280;50528;48.514;14.394;2023-06-14T01:34:45;93500.45;;;9.43;62.75
64211;BME280;50528;48.514;14.394;2023-06-14T01:35:18;93501.41;;;9.45;62.69
64211;BME280;50528;48.514;14.394;2023-06-14T01:35:53;93500.13;;;9.47;62.74
64211;BME280;50528;48.514;14.394;2023-06-14T01:36:27;93500.06;;;9.46;62.72
64211;BME280;50528;48.514;14.394;2023-06-14T01:37:03;93502.18;;;9.48;62.77
64211;BME280;50528;48.514;14.394;2023-06-14T01:37:37;93503.90;;;9.49;62.80
64211;BME280;50528;48.514;14.394;2023-06-14T01:38:12;93502.61;;;9.51;62.84
64211;BME280;50528;48.514;14.394;2023-06-14T01:38:47;93501.21;;;9.52;62.90
64211;BME280;50528;48.514;14.394;2023-06-14T01:39:23;93500.38;;;9.53;62.89
64211;BME280;50528;48.514;14.394;2023-06-14T01:39:58;93500.45;;;9.53;62.91
64211;BME280;50528;48.514;14.394;2023-06-14T01:40:34;93500.23;;;9.55;62.91
64211;BME280;50528;48.514;14.394;2023-06-14T01:41:08;93499.71;;;9.56;62.96
64211;BME280;50528;48.514;14.394;2023-06-14T01:41:44;93498.41;;;9.56;62.92
64211;BME280;50528;48.514;14.394;2023-06-14T01:42:19;93499.43;;;9.57;62.92
64211;BME280;50528;48.514;14.394;2023-06-14T01:42:53;93495.90;;;9.57;62.93
64211;BME280;50528;48.514;14.394;2023-06-14T01:43:30;93499.03;;;9.59;62.97
64211;BME280;50528;48.514;14.394;2023-06-14T01:44:04;93497.14;;;9.60;62.93
64211;BME280;50528;48.514;14.394;2023-06-14T01:44:40;93496.25;;;9.60;62.93
64211;BME280;50528;48.514;14.394;2023-06-14T01:45:15;93497.13;;;9.59;62.99
64211;BME280;50528;48.514;14.394;2023-06-14T01:45:50;93498.29;;;9.59;62.81
64211;BME280;50528;48.514;14.394;2023-06-14T01:46:25;93503.13;;;9.60;62.92
64211;BME280;50528;48.514;14.394;2023-06-14T01:47:00;93500.08;;;9.59;62.83
64211;BME280;50528;48.514;14.394;2023-06-14T01:47:33;93497.57;;;9.59;62.87
64211;BME280;50528;48.514;14.394;2023-06-14T01:48:09;93500.98;;;9.60;62.79
64211;BME280;50528;48.514;14.394;2023-06-14T01:48:43;93499.41;;;9.60;62.85
64211;BME280;50528;48.514;14.394;2023-06-14T01:50:42;93501.55;;;9.55;62.60
64211;BME280;50528;48.514;14.394;2023-06-14T01:51:15;93502.29;;;9.50;62.61
64211;BME280;50528;48.514;14.394;2023-06-14T01:51:49;93501.02;;;9.49;62.60
64211;BME280;50528;48.514;14.394;2023-06-14T01:52:22;93500.88;;;9.51;62.80
64211;BME280;50528;48.514;14.394;2023-06-14T01:52:58;93496.67;;;9.50;62.78
64211;BME280;50528;48.514;14.394;2023-06-14T01:53:31;93499.52;;;9.51;62.76
64211;BME280;50528;48.514;14.394;2023-06-14T01:54:05;93498.98;;;9.50;62.84
64211;BME280;50528;48.514;14.394;2023-06-14T01:54:38;93495.30;;;9.50;62.99
64211;BME280;50528;48.514;14.394;2023-06-14T01:55:15;93494.62;;;9.49;63.00
64211;BME280;50528;48.514;14.394;2023-06-14T01:55:51;93496.02;;;9.47;63.01
64211;BME280;50528;48.514;14.394;2023-06-14T01:56:28;93493.42;;;9.45;62.95
64211;BME280;50528;48.514;14.394;2023-06-14T01:57:01;93495.98;;;9.44;62.88
64211;BME280;50528;48.514;14.394;2023-06-14T01:57:35;93493.57;;;9.44;63.06
64211;BME280;50528;48.514;14.394;2023-06-14T01:58:10;93494.35;;;9.42;63.25
64211;BME280;50528;48.514;14.394;2023-06-14T01:58:43;93490.98;;;9.40;63.16
64211;BME280;50528;48.514;14.394;2023-06-14T01:59:17;93489.45;;;9.40;63.22
64211;BME280;50528;48.514;14.394;2023-06-14T01:59:50;93490.40;;;9.40;63.34
64211;BME280;50528;48.514;14.394;2023-06-14T02:00:24;93489.76;;;9.38;63.20
64211;BME280;50528;48.514;14.394;2023-06-14T02:00:57;93489.04;;;9.37;63.23
64211;BME280;50528;48.514;14.394;2023-06-14T02:01:34;93487.39;;;9.34;63.34
64211;BME280;50528;48.514;14.394;2023-06-14T02:02:08;93489.84;;;9.36;63.34
64211;BME280;50528;48.514;14.394;2023-06-14T02:02:41;93491.58;;;9.36;63.43
64211;BME280;50528;48.514;14.394;2023-06-14T02:03:15;93489.27;;;9.37;63.49
64211;BME280;50528;48.514;14.394;2023-06-14T02:03:48;93490.36;;;9.38;63.50
64211;BME280;50528;48.514;14.394;2023-06-14T02:04:22;93489.89;;;9.37;63.52
64211;BME280;50528;48.514;14.394;2023-06-14T02:04:55;93489.57;;;9.37;63.52
64211;BME280;50528;48.514;14.394;2023-06-14T02:05:30;93487.85;;;9.36;63.66
64211;BME280;50528;48.514;14.394;2023-06-14T02:06:04;93487.77;;;9.33;63.64
64211;BME280;50528;48.514;14.394;2023-06-14T02:06:38;93490.09;;;9.35;63.64
64211;BME280;50528;48.514;14.394;2023-06-14T02:07:12;93493.77;;;9.35;63.60
64211;BME280;50528;48.514;14.394;2023-06-14T02:07:45;93489.16;;;9.35;63.68
64211;BME280;50528;48.514;14.394;2023-06-14T02:08:21;93493.39;;;9.35;63.70
64211;BME280;50528;48.514;14.394;2023-06-14T02:08:56;93491.92;;;9.34;63.74
64211;BME280;50528;48.514;14.394;2023-06-14T02:09:29;93494.45;;;9.35;63.74
64211;BME280;50528;48.514;14.394;2023-06-14T02:10:04;93493.98;;;9.35;63.80
64211;BME280;50528;48.514;14.394;2023-06-14T02:10:37;93493.98;;;9.35;63.83
64211;BME280;50528;48.514;14.394;2023-06-14T02:11:10;93492.25;;;9.36;63.84
64211;BME280;50528;48.514;14.394;2023-06-14T02:11:44;93489.98;;;9.37;63.82
64211;BME280;50528;48.514;14.394;2023-06-14T02:12:17;93492.52;;;9.37;63.83
64211;BME280;50528;48.514;14.394;2023-06-14T02:12:51;93491.77;;;9.37;63.77
64211;BME280;50528;48.514;14.394;2023-06-14T02:13:24;93495.01;;;9.39;63.73
64211;BME280;50528;48.514;14.394;2023-06-14T02:13:58;93493.97;;;9.40;63.78
64211;BME280;50528;48.514;14.394;2023-06-14T02:14:33;93496.75;;;9.40;63.77
64211;BME280;50528;48.514;14.394;2023-06-14T02:15:07;93495.50;;;9.41;63.87
64211;BME280;50528;48.514;14.394;2023-06-14T02:15:41;93496.56;;;9.41;63.90
64211;BME280;50528;48.514;14.394;2023-06-14T02:16:16;93498.70;;;9.43;63.86
64211;BME280;50528;48.514;14.394;2023-06-14T02:16:50;93497.66;;;9.43;63.95
64211;BME280;50528;48.514;14.394;2023-06-14T02:17:24;93499.02;;;9.43;63.91
64211;BME280;50528;48.514;14.394;2023-06-14T02:18:01;93496.46;;;9.44;63.86
64211;BME280;50528;48.514;14.394;2023-06-14T02:18:38;93494.73;;;9.44;63.90
64211;BME280;50528;48.514;14.394;2023-06-14T02:19:11;93498.63;;;9.45;63.98
64211;BME280;50528;48.514;14.394;2023-06-14T02:19:45;93496.23;;;9.46;63.93
64211;BME280;50528;48.514;14.394;2023-06-14T02:20:18;93491.14;;;9.46;64.07
64211;BME280;50528;48.514;14.394;2023-06-14T02:20:52;93494.27;;;9.45;64.19
64211;BME280;50528;48.514;14.394;2023-06-14T02:21:25;93492.28;;;9.45;64.06
64211;BME280;50528;48.514;14.394;2023-06-14T02:21:58;93494.45;;;9.46;63.99
64211;BME280;50528;48.514;14.394;2023-06-14T02:22:32;93497.34;;;9.47;64.01
64211;BME280;50528;48.514;14.394;2023-06-14T02:23:06;93493.83;;;9.47;64.08
64211;BME280;50528;48.514;14.394;2023-06-14T02:23:41;93495.36;;;9.47;64.16
64211;BME280;50528;48.514;14.394;2023-06-14T02:24:14;93492.27;;;9.49;64.08
64211;BME280;50528;48.514;14.394;2023-06-14T02:24:48;93496.89;;;9.45;63.95
64211;BME280;50528;48.514;14.394;2023-06-14T02:25:31;93494.67;;;9.41;64.01
64211;BME280;50528;48.514;14.394;2023-06-14T02:26:04;93493.81;;;9.40;64.04
64211;BME280;50528;48.514;14.394;2023-06-14T02:26:40;93495.96;;;9.40;64.02
64211;BME280;50528;48.514;14.394;2023-06-14T02:27:20;93496.94;;;9.39;64.07
64211;BME280;50528;48.514;14.394;2023-06-14T02:27:54;93497.16;;;9.39;64.19
64211;BME280;50528;48.514;14.394;2023-06-14T02:28:28;93496.31;;;9.39;64.14
64211;BME280;50528;48.514;14.394;2023-06-14T02:29:02;93494.69;;;9.39;64.16
64211;BME280;50528;48.514;14.394;2023-06-14T02:29:36;93496.33;;;9.40;64.30
64211;BME280;50528;48.514;14.394;2023-06-14T02:30:10;93498.38;;;9.40;64.28
64211;BME280;50528;48.514;14.394;2023-06-14T02:30:43;93494.34;;;9.40;64.33
64211;BME280;50528;48.514;14.394;2023-06-14T02:31:17;93498.17;;;9.40;64.23
64211;BME280;50528;48.514;14.394;2023-06-14T02:31:54;93497.23;;;9.41;64.32
64211;BME280;50528;48.514;14.394;2023-06-14T02:32:27;93497.27;;;9.40;64.29
64211;BME280;50528;48.514;14.394;2023-06-14T02:33:01;93497.07;;;9.40;64.32
64211;BME280;50528;48.514;14.394;2023-06-14T02:33:35;93497.27;;;9.40;64.27
64211;BME280;50528;48.514;14.394;2023-06-14T02:34:08;93499.42;;;9.40;64.31
64211;BME280;50528;48.514;14.394;2023-06-14T02:34:41;93498.90;;;9.40;64.31
64211;BME280;50528;48.514;14.394;2023-06-14T02:35:16;93500.61;;;9.38;64.41
64211;BME280;50528;48.514;14.394;2023-06-14T02:35:49;93502.83;;;9.39;64.50
64211;BME280;50528;48.514;14.394;2023-06-14T02:36:23;93500.09;;;9.39;64.51
64211;BME280;50528;48.514;14.394;2023-06-14T02:36:56;93501.40;;;9.39;64.54
64211;BME280;50528;48.514;14.394;2023-06-14T02:37:32;93502.45;;;9.39;64.55
64211;BME280;50528;48.514;14.394;2023-06-14T02:38:05;93504.38;;;9.38;64.55
64211;BME280;50528;48.514;14.394;2023-06-14T02:38:39;93501.81;;;9.38;64.62
64211;BME280;50528;48.514;14.394;2023-06-14T02:39:14;93503.90;;;9.38;64.62
64211;BME280;50528;48.514;14.394;2023-06-14T02:39:49;93506.42;;;9.38;64.70
64211;BME280;50528;48.514;14.394;2023-06-14T02:40:22;93505.48;;;9.38;64.71
64211;BME280;50528;48.514;14.394;2023-06-14T02:40:56;93503.34;;;9.38;64.60
64211;BME280;50528;48.514;14.394;2023-06-14T02:41:31;93505.45;;;9.39;64.61
64211;BME280;50528;48.514;14.394;2023-06-14T02:42:05;93504.35;;;9.40;64.63
64211;BME280;50528;48.514;14.394;2023-06-14T02:42:39;93506.13;;;9.39;64.63
64211;BME280;50528;48.514;14.394;2023-06-14T02:43:12;93504.83;;;9.40;64.70
64211;BME280;50528;48.514;14.394;2023-06-14T02:43:46;93505.04;;;9.40;64.68
64211;BME280;50528;48.514;14.394;2023-06-14T02:44:19;93504.89;;;9.41;64.69
64211;BME280;50528;48.514;14.394;2023-06-14T02:44:52;93505.38;;;9.41;64.75
64211;BME280;50528;48.514;14.394;2023-06-14T02:45:26;93507.36;;;9.42;64.74
64211;BME280;50528;48.514;14.394;2023-06-14T02:45:59;93507.52;;;9.42;64.77
64211;BME280;50528;48.514;14.394;2023-06-14T02:46:33;93505.00;;;9.42;64.75
64211;BME280;50528;48.514;14.394;2023-06-14T02:47:06;93505.36;;;9.42;64.81
64211;BME280;50528;48.514;14.394;2023-06-14T02:47:40;93502.20;;;9.41;64.88
64211;BME280;50528;48.514;14.394;2023-06-14T02:48:13;93504.95;;;9.43;64.87
64211;BME280;50528;48.514;14.394;2023-06-14T02:48:47;93506.44;;;9.44;64.85
64211;BME280;50528;48.514;14.394;2023-06-14T02:49:21;93505.17;;;9.44;64.86
64211;BME280;50528;48.514;14.394;2023-06-14T02:49:55;93508.08;;;9.45;64.93
64211;BME280;50528;48.514;14.394;2023-06-14T02:50:28;93506.50;;;9.45;64.93
64211;BME280;50528;48.514;14.394;2023-06-14T02:51:03;93504.72;;;9.45;64.97
64211;BME280;50528;48.514;14.394;2023-06-14T02:51:36;93504.26;;;9.46;64.99
64211;BME280;50528;48.514;14.394;2023-06-14T02:52:10;93506.80;;;9.44;64.90
64211;BME280;50528;48.514;14.394;2023-06-14T02:52:43;93503.41;;;9.41;64.94
64211;BME280;50528;48.514;14.394;2023-06-14T02:53:17;93507.98;;;9.41;65.01
64211;BME280;50528;48.514;14.394;2023-06-14T02:53:51;93503.63;;;9.40;65.08
64211;BME280;50528;48.514;14.394;2023-06-14T02:54:25;93506.09;;;9.40;65.29
64211;BME280;50528;48.514;14.394;2023-06-14T02:54:58;93504.48;;;9.39;65.24
64211;BME280;50528;48.514;14.394;2023-06-14T02:55:32;93503.69;;;9.37;65.43
64211;BME280;50528;48.514;14.394;2023-06-14T02:56:06;93505.89;;;9.38;65.39
64211;BME280;50528;48.514;14.394;2023-06-14T02:56:39;93499.64;;;9.37;65.35
64211;BME280;50528;48.514;14.394;2023-06-14T02:57:13;93504.52;;;9.37;65.43
64211;BME280;50528;48.514;14.394;2023-06-14T02:57:47;93501.23;;;9.36;65.47
64211;BME280;50528;48.514;14.394;2023-06-14T02:58:21;93503.27;;;9.37;65.42
64211;BME280;50528;48.514;14.394;2023-06-14T02:58:55;93502.02;;;9.37;65.32
64211;BME280;50528;48.514;14.394;2023-06-14T02:59:28;93503.69;;;9.37;65.32
64211;BME280;50528;48.514;14.394;2023-06-14T03:00:02;93502.48;;;9.37;65.27
64211;BME280;50528;48.514;14.394;2023-06-14T03:00:36;93501.27;;;9.37;65.21
64211;BME280;50528;48.514;14.394;2023-06-14T03:01:12;93499.06;;;9.37;65.16
64211;BME280;50528;48.514;14.394;2023-06-14T03:01:46;93500.85;;;9.37;65.13
64211;BME280;50528;48.514;14.394;2023-06-14T03:02:19;93497.70;;;9.37;65.09
64211;BME280;50528;48.514;14.394;2023-06-14T03:02:53;93495.75;;;9.35;65.12
64211;BME280;50528;48.514;14.394;2023-06-14T03:03:29;93499.91;;;9.36;65.16
64211;BME280;50528;48.514;14.394;2023-06-14T03:04:03;93496.86;;;9.35;65.20
64211;BME280;50528;48.514;14.394;2023-06-14T03:04:37;93494.44;;;9.34;65.13
64211;BME280;50528;48.514;14.394;2023-06-14T03:05:16;93492.14;;;9.30;65.26
64211;BME280;50528;48.514;14.394;2023-06-14T03:05:50;93497.36;;;9.33;65.22
64211;BME280;50528;48.514;14.394;2023-06-14T03:06:27;93495.89;;;9.33;65.22
64211;BME280;50528;48.514;14.394;2023-06-14T03:07:03;93496.67;;;9.33;65.21
64211;BME280;50528;48.514;14.394;2023-06-14T03:07:42;93495.44;;;9.30;65.19
64211;BME280;50528;48.514;14.394;2023-06-14T03:08:18;93495.40;;;9.31;65.30